sensor_id;sensor_type;location;lat;lon;timestamp;temperature;humidity
13049;DHT22;6591;51.446;5.404;2023-04-29T00:01:45;12.70;99.90
13049;DHT22;6591;51.446;5.404;2023-04-29T00:04:14;14.30;99.90
13049;DHT22;6591;51.446;5.404;2023-04-29T00:06:41;14.50;99.90
13049;DHT22;6591;51.446;5.404;2023-04-29T00:09:08;12.60;99.90
13049;DHT22;6591;51.446;5.404;2023-04-29T00:11:36;12.60;99.90
13049;DHT22;6591;51.446;5.404;2023-04-29T00:14:03;12.70;99.90
13049;DHT22;6591;51.446;5.404;2023-04-29T00:16:30;12.60;99.90
13049;DHT22;6591;51.446;5.404;2023-04-29T00:18:57;13.70;99.90
13049;DHT22;6591;51.446;5.404;2023-04-29T00:21:25;13.90;99.90
13049;DHT22;6591;51.446;5.404;2023-04-29T00:23:53;12.60;99.90
13049;DHT22;6591;51.446;5.404;2023-04-29T00:26:20;14.20;99.90
13049;DHT22;6591;51.446;5.404;2023-04-29T00:28:47;14.10;99.90
13049;DHT22;6591;51.446;5.404;2023-04-29T00:31:14;12.40;99.90
13049;DHT22;6591;51.446;5.404;2023-04-29T00:33:42;14.10;99.90
13049;DHT22;6591;51.446;5.404;2023-04-29T00:36:09;14.10;99.90
13049;DHT22;6591;51.446;5.404;2023-04-29T00:38:36;14.40;99.90
13049;DHT22;6591;51.446;5.404;2023-04-29T00:41:03;12.80;99.90
13049;DHT22;6591;51.446;5.404;2023-04-29T00:43:30;10.50;99.90
13049;DHT22;6591;51.446;5.404;2023-04-29T00:45:57;12.30;99.90
13049;DHT22;6591;51.446;5.404;2023-04-29T00:48:25;12.30;99.90
13049;DHT22;6591;51.446;5.404;2023-04-29T00:50:52;12.10;99.90
13049;DHT22;6591;51.446;5.404;2023-04-29T00:53:19;12.10;99.90
13049;DHT22;6591;51.446;5.404;2023-04-29T00:55:49;13.20;99.90
13049;DHT22;6591;51.446;5.404;2023-04-29T00:58:18;12.60;99.90
13049;DHT22;6591;51.446;5.404;2023-04-29T01:00:46;12.20;99.90
13049;DHT22;6591;51.446;5.404;2023-04-29T01:03:15;12.00;99.90
13049;DHT22;6591;51.446;5.404;2023-04-29T01:05:47;12.00;99.90
13049;DHT22;6591;51.446;5.404;2023-04-29T01:08:33;13.70;99.90
13049;DHT22;6591;51.446;5.404;2023-04-29T01:11:10;14.40;99.90
13049;DHT22;6591;51.446;5.404;2023-04-29T01:13:44;12.50;99.90
13049;DHT22;6591;51.446;5.404;2023-04-29T01:16:34;12.20;99.90
13049;DHT22;6591;51.446;5.404;2023-04-29T01:22:05;11.90;99.90
13049;DHT22;6591;51.446;5.404;2023-04-29T01:24:34;13.50;99.90
13049;DHT22;6591;51.446;5.404;2023-04-29T01:27:26;11.90;99.90
13049;DHT22;6591;51.446;5.404;2023-04-29T01:38:33;11.80;99.90
13049;DHT22;6591;51.446;5.404;2023-04-29T01:41:25;13.70;99.90
13049;DHT22;6591;51.446;5.404;2023-04-29T01:44:07;13.10;99.90
13049;DHT22;6591;51.446;5.404;2023-04-29T01:46:39;13.70;99.90
13049;DHT22;6591;51.446;5.404;2023-04-29T01:49:08;13.30;99.90
13049;DHT22;6591;51.446;5.404;2023-04-29T01:51:36;11.80;99.90
13049;DHT22;6591;51.446;5.404;2023-04-29T01:54:04;11.70;99.90
13049;DHT22;6591;51.446;5.404;2023-04-29T01:56:31;13.10;99.90
13049;DHT22;6591;51.446;5.404;2023-04-29T01:59:06;11.70;99.90
13049;DHT22;6591;51.446;5.404;2023-04-29T02:01:52;11.70;99.90
13049;DHT22;6591;51.446;5.404;2023-04-29T02:04:20;11.70;99.90
13049;DHT22;6591;51.446;5.404;2023-04-29T02:06:47;12.90;99.90
13049;DHT22;6591;51.446;5.404;2023-04-29T02:09:21;12.80;99.90
13049;DHT22;6591;51.446;5.404;2023-04-29T02:11:54;12.80;99.90
13049;DHT22;6591;51.446;5.404;2023-04-29T02:14:21;11.70;99.90
13049;DHT22;6591;51.446;5.404;2023-04-29T02:16:49;11.70;99.90
13049;DHT22;6591;51.446;5.404;2023-04-29T02:19:16;12.40;99.90
13049;DHT22;6591;51.446;5.404;2023-04-29T02:21:44;11.70;99.90
13049;DHT22;6591;51.446;5.404;2023-04-29T02:24:11;11.70;99.90
13049;DHT22;6591;51.446;5.404;2023-04-29T02:26:38;11.70;99.90
13049;DHT22;6591;51.446;5.404;2023-04-29T02:29:05;12.70;99.90
13049;DHT22;6591;51.446;5.404;2023-04-29T02:31:32;11.70;99.90
13049;DHT22;6591;51.446;5.404;2023-04-29T02:33:59;11.70;99.90
13049;DHT22;6591;51.446;5.404;2023-04-29T02:36:26;13.00;99.90
13049;DHT22;6591;51.446;5.404;2023-04-29T02:38:54;14.00;99.90
13049;DHT22;6591;51.446;5.404;2023-04-29T02:41:22;11.70;99.90
13049;DHT22;6591;51.446;5.404;2023-04-29T02:43:49;11.70;99.90
13049;DHT22;6591;51.446;5.404;2023-04-29T02:46:16;13.10;99.90
13049;DHT22;6591;51.446;5.404;2023-04-29T02:48:44;11.80;99.90
13049;DHT22;6591;51.446;5.404;2023-04-29T02:51:12;11.80;99.90
13049;DHT22;6591;51.446;5.404;2023-04-29T02:53:40;11.90;99.90
13049;DHT22;6591;51.446;5.404;2023-04-29T02:56:07;11.70;99.90
13049;DHT22;6591;51.446;5.404;2023-04-29T02:58:34;13.40;99.90
13049;DHT22;6591;51.446;5.404;2023-04-29T03:01:01;13.60;99.90
13049;DHT22;6591;51.446;5.404;2023-04-29T03:03:30;14.10;99.90
13049;DHT22;6591;51.446;5.404;2023-04-29T03:05:58;13.50;99.90
13049;DHT22;6591;51.446;5.404;2023-04-29T03:08:25;11.70;99.90
13049;DHT22;6591;51.446;5.404;2023-04-29T03:10:52;11.70;99.90
13049;DHT22;6591;51.446;5.404;2023-04-29T03:13:19;12.50;99.90
13049;DHT22;6591;51.446;5.404;2023-04-29T03:15:46;12.40;99.90
13049;DHT22;6591;51.446;5.404;2023-04-29T03:18:14;13.30;99.90
13049;DHT22;6591;51.446;5.404;2023-04-29T03:20:41;11.90;99.90
13049;DHT22;6591;51.446;5.404;2023-04-29T03:23:08;11.60;99.90
13049;DHT22;6591;51.446;5.404;2023-04-29T03:25:35;11.90;99.90
13049;DHT22;6591;51.446;5.404;2023-04-29T03:28:03;11.50;99.90
13049;DHT22;6591;51.446;5.404;2023-04-29T03:30:30;11.50;99.90
13049;DHT22;6591;51.446;5.404;2023-04-29T03:32:58;12.20;99.90
13049;DHT22;6591;51.446;5.404;2023-04-29T03:35:27;12.80;99.90
13049;DHT22;6591;51.446;5.404;2023-04-29T03:38:17;11.50;99.90
13049;DHT22;6591;51.446;5.404;2023-04-29T03:40:44;11.50;99.90
13049;DHT22;6591;51.446;5.404;2023-04-29T03:43:13;12.50;99.90
13049;DHT22;6591;51.446;5.404;2023-04-29T03:45:40;13.30;99.90
13049;DHT22;6591;51.446;5.404;2023-04-29T03:48:08;11.40;99.90
13049;DHT22;6591;51.446;5.404;2023-04-29T03:50:36;11.30;99.90
13049;DHT22;6591;51.446;5.404;2023-04-29T03:53:03;11.40;99.90
13049;DHT22;6591;51.446;5.404;2023-04-29T03:55:30;13.30;99.90
13049;DHT22;6591;51.446;5.404;2023-04-29T03:57:58;13.30;99.90
13049;DHT22;6591;51.446;5.404;2023-04-29T04:00:26;13.80;99.90
13049;DHT22;6591;51.446;5.404;2023-04-29T04:02:58;11.40;99.90
13049;DHT22;6591;51.446;5.404;2023-04-29T04:05:28;11.40;99.90
13049;DHT22;6591;51.446;5.404;2023-04-29T04:08:02;11.90;99.90
13049;DHT22;6591;51.446;5.404;2023-04-29T04:10:35;11.40;99.90
13049;DHT22;6591;51.446;5.404;2023-04-29T04:13:11;11.30;99.90
13049;DHT22;6591;51.446;5.404;2023-04-29T04:15:38;11.30;99.90
13049;DHT22;6591;51.446;5.404;2023-04-29T04:18:05;11.30;99.90
13049;DHT22;6591;51.446;5.404;2023-04-29T04:20:32;12.90;99.90
13049;DHT22;6591;51.446;5.404;2023-04-29T04:23:02;11.30;99.90
13049;DHT22;6591;51.446;5.404;2023-04-29T04:25:29;11.30;99.90
13049;DHT22;6591;51.446;5.404;2023-04-29T04:28:10;11.50;99.90
13049;DHT22;6591;51.446;5.404;2023-04-29T04:30:52;12.60;99.90
13049;DHT22;6591;51.446;5.404;2023-04-29T04:33:19;11.30;99.90
13049;DHT22;6591;51.446;5.404;2023-04-29T04:35:47;11.30;99.90
13049;DHT22;6591;51.446;5.404;2023-04-29T04:38:15;12.50;99.90
13049;DHT22;6591;51.446;5.404;2023-04-29T04:40:43;11.20;99.90
13049;DHT22;6591;51.446;5.404;2023-04-29T04:43:36;11.40;99.90
13049;DHT22;6591;51.446;5.404;2023-04-29T04:46:15;11.40;99.90
13049;DHT22;6591;51.446;5.404;2023-04-29T04:49:06;11.40;99.90
13049;DHT22;6591;51.446;5.404;2023-04-29T04:51:42;10.30;99.90
13049;DHT22;6591;51.446;5.404;2023-04-29T04:54:11;11.40;99.90
13049;DHT22;6591;51.446;5.404;2023-04-29T04:56:38;11.40;99.90
13049;DHT22;6591;51.446;5.404;2023-04-29T04:59:06;12.40;99.90
13049;DHT22;6591;51.446;5.404;2023-04-29T05:01:35;12.80;99.90
13049;DHT22;6591;51.446;5.404;2023-04-29T05:04:03;11.40;99.90
13049;DHT22;6591;51.446;5.404;2023-04-29T05:06:31;11.40;99.90
13049;DHT22;6591;51.446;5.404;2023-04-29T05:08:58;11.40;99.90
13049;DHT22;6591;51.446;5.404;2023-04-29T05:11:26;12.80;99.90
13049;DHT22;6591;51.446;5.404;2023-04-29T05:14:06;13.40;99.90
13049;DHT22;6591;51.446;5.404;2023-04-29T05:16:33;11.40;99.90
13049;DHT22;6591;51.446;5.404;2023-04-29T05:19:01;11.40;99.90
13049;DHT22;6591;51.446;5.404;2023-04-29T05:21:31;12.10;99.90
13049;DHT22;6591;51.446;5.404;2023-04-29T05:24:01;12.20;99.90
13049;DHT22;6591;51.446;5.404;2023-04-29T05:26:28;12.50;99.90
13049;DHT22;6591;51.446;5.404;2023-04-29T05:28:58;13.30;99.90
13049;DHT22;6591;51.446;5.404;2023-04-29T05:31:29;11.50;99.90
13049;DHT22;6591;51.446;5.404;2023-04-29T05:34:00;11.80;99.90
13049;DHT22;6591;51.446;5.404;2023-04-29T05:36:28;13.20;99.90
13049;DHT22;6591;51.446;5.404;2023-04-29T05:38:56;13.30;99.90
13049;DHT22;6591;51.446;5.404;2023-04-29T05:41:24;11.50;99.90
13049;DHT22;6591;51.446;5.404;2023-04-29T05:44:07;11.50;99.90
13049;DHT22;6591;51.446;5.404;2023-04-29T05:46:34;11.50;99.90
13049;DHT22;6591;51.446;5.404;2023-04-29T05:49:01;11.50;99.90
13049;DHT22;6591;51.446;5.404;2023-04-29T05:51:28;11.50;99.90
13049;DHT22;6591;51.446;5.404;2023-04-29T05:53:57;11.60;99.90
13049;DHT22;6591;51.446;5.404;2023-04-29T05:56:27;11.50;99.90
13049;DHT22;6591;51.446;5.404;2023-04-29T05:58:55;11.50;99.90
13049;DHT22;6591;51.446;5.404;2023-04-29T06:01:25;11.50;99.90
13049;DHT22;6591;51.446;5.404;2023-04-29T06:03:52;11.60;99.90
13049;DHT22;6591;51.446;5.404;2023-04-29T06:06:40;14.00;99.90
13049;DHT22;6591;51.446;5.404;2023-04-29T06:09:07;11.60;99.90
13049;DHT22;6591;51.446;5.404;2023-04-29T06:11:50;14.50;99.90
13049;DHT22;6591;51.446;5.404;2023-04-29T06:14:19;11.60;99.90
13049;DHT22;6591;51.446;5.404;2023-04-29T06:16:47;11.70;99.90
13049;DHT22;6591;51.446;5.404;2023-04-29T06:19:15;11.70;99.90
13049;DHT22;6591;51.446;5.404;2023-04-29T06:21:42;14.00;99.90
13049;DHT22;6591;51.446;5.404;2023-04-29T06:24:10;12.70;99.90
13049;DHT22;6591;51.446;5.404;2023-04-29T06:26:37;11.70;99.90
13049;DHT22;6591;51.446;5.404;2023-04-29T06:29:04;11.80;99.90
13049;DHT22;6591;51.446;5.404;2023-04-29T06:31:32;12.60;99.90
13049;DHT22;6591;51.446;5.404;2023-04-29T06:34:02;13.50;99.90
13049;DHT22;6591;51.446;5.404;2023-04-29T06:36:31;12.80;99.90
13049;DHT22;6591;51.446;5.404;2023-04-29T06:39:04;13.30;99.90
13049;DHT22;6591;51.446;5.404;2023-04-29T06:42:09;13.70;99.90
13049;DHT22;6591;51.446;5.404;2023-04-29T06:44:39;13.30;99.90
13049;DHT22;6591;51.446;5.404;2023-04-29T06:47:32;11.90;99.90
13049;DHT22;6591;51.446;5.404;2023-04-29T06:50:06;12.60;99.90
13049;DHT22;6591;51.446;5.404;2023-04-29T06:52:33;11.90;99.90
13049;DHT22;6591;51.446;5.404;2023-04-29T06:55:00;11.90;99.90
13049;DHT22;6591;51.446;5.404;2023-04-29T06:57:27;12.70;99.90
13049;DHT22;6591;51.446;5.404;2023-04-29T06:59:54;11.90;99.90
13049;DHT22;6591;51.446;5.404;2023-04-29T07:02:23;11.90;99.90
13049;DHT22;6591;51.446;5.404;2023-04-29T07:04:50;12.80;99.90
13049;DHT22;6591;51.446;5.404;2023-04-29T07:07:18;13.30;99.90
13049;DHT22;6591;51.446;5.404;2023-04-29T07:09:45;12.70;99.90
13049;DHT22;6591;51.446;5.404;2023-04-29T07:12:13;12.10;99.90
13049;DHT22;6591;51.446;5.404;2023-04-29T07:14:40;12.40;99.90
13049;DHT22;6591;51.446;5.404;2023-04-29T07:17:07;12.20;99.90
13049;DHT22;6591;51.446;5.404;2023-04-29T07:19:35;12.30;99.90
13049;DHT22;6591;51.446;5.404;2023-04-29T07:22:03;13.10;99.90
13049;DHT22;6591;51.446;5.404;2023-04-29T07:24:30;12.70;99.90
13049;DHT22;6591;51.446;5.404;2023-04-29T07:26:57;14.40;99.90
13049;DHT22;6591;51.446;5.404;2023-04-29T07:29:24;12.60;99.90
13049;DHT22;6591;51.446;5.404;2023-04-29T07:31:51;12.60;99.90
13049;DHT22;6591;51.446;5.404;2023-04-29T07:34:18;12.70;99.90
13049;DHT22;6591;51.446;5.404;2023-04-29T07:36:45;13.10;99.90
13049;DHT22;6591;51.446;5.404;2023-04-29T07:39:12;13.70;99.90
13049;DHT22;6591;51.446;5.404;2023-04-29T07:41:43;13.00;99.90
13049;DHT22;6591;51.446;5.404;2023-04-29T07:44:10;13.00;99.90
13049;DHT22;6591;51.446;5.404;2023-04-29T07:46:37;13.10;99.90
13049;DHT22;6591;51.446;5.404;2023-04-29T07:49:04;12.80;99.90
13049;DHT22;6591;51.446;5.404;2023-04-29T07:51:32;13.20;99.90
13049;DHT22;6591;51.446;5.404;2023-04-29T07:54:00;13.20;99.90
13049;DHT22;6591;51.446;5.404;2023-04-29T07:56:27;15.00;99.90
13049;DHT22;6591;51.446;5.404;2023-04-29T07:58:54;14.50;99.90
13049;DHT22;6591;51.446;5.404;2023-04-29T08:01:21;14.50;99.90
13049;DHT22;6591;51.446;5.404;2023-04-29T08:03:48;13.80;99.90
13049;DHT22;6591;51.446;5.404;2023-04-29T08:06:18;15.50;99.90
13049;DHT22;6591;51.446;5.404;2023-04-29T08:08:48;13.50;99.90
13049;DHT22;6591;51.446;5.404;2023-04-29T08:11:20;13.90;99.90
13049;DHT22;6591;51.446;5.404;2023-04-29T08:13:50;13.60;99.90
13049;DHT22;6591;51.446;5.404;2023-04-29T08:16:17;13.70;99.90
13049;DHT22;6591;51.446;5.404;2023-04-29T08:18:44;13.80;99.90
13049;DHT22;6591;51.446;5.404;2023-04-29T08:21:11;14.60;99.90
13049;DHT22;6591;51.446;5.404;2023-04-29T08:23:39;14.10;99.90
13049;DHT22;6591;51.446;5.404;2023-04-29T08:26:06;14.10;99.90
13049;DHT22;6591;51.446;5.404;2023-04-29T08:28:35;14.30;99.90
13049;DHT22;6591;51.446;5.404;2023-04-29T08:31:02;15.70;99.90
13049;DHT22;6591;51.446;5.404;2023-04-29T08:33:29;15.00;99.90
13049;DHT22;6591;51.446;5.404;2023-04-29T08:35:59;16.00;99.90
13049;DHT22;6591;51.446;5.404;2023-04-29T08:38:29;15.40;99.90
13049;DHT22;6591;51.446;5.404;2023-04-29T08:40:56;16.20;99.90
13049;DHT22;6591;51.446;5.404;2023-04-29T08:43:24;15.00;99.90
13049;DHT22;6591;51.446;5.404;2023-04-29T08:45:53;16.00;99.90
13049;DHT22;6591;51.446;5.404;2023-04-29T08:48:21;15.10;99.90
13049;DHT22;6591;51.446;5.404;2023-04-29T08:50:48;15.70;99.90
13049;DHT22;6591;51.446;5.404;2023-04-29T08:53:16;15.50;99.90
13049;DHT22;6591;51.446;5.404;2023-04-29T08:55:45;16.30;99.90
13049;DHT22;6591;51.446;5.404;2023-04-29T08:58:14;15.70;99.90
13049;DHT22;6591;51.446;5.404;2023-04-29T09:00:43;16.80;99.90
13049;DHT22;6591;51.446;5.404;2023-04-29T09:03:22;16.00;99.90
13049;DHT22;6591;51.446;5.404;2023-04-29T09:05:55;16.10;99.90
13049;DHT22;6591;51.446;5.404;2023-04-29T09:08:26;16.80;99.90
13049;DHT22;6591;51.446;5.404;2023-04-29T09:10:54;16.30;99.90
13049;DHT22;6591;51.446;5.404;2023-04-29T09:13:24;16.40;99.90
13049;DHT22;6591;51.446;5.404;2023-04-29T09:15:53;16.60;99.90
13049;DHT22;6591;51.446;5.404;2023-04-29T09:18:48;16.80;99.90
13049;DHT22;6591;51.446;5.404;2023-04-29T09:21:24;16.90;99.90
13049;DHT22;6591;51.446;5.404;2023-04-29T09:24:00;17.00;99.90
13049;DHT22;6591;51.446;5.404;2023-04-29T09:26:41;17.00;99.90
13049;DHT22;6591;51.446;5.404;2023-04-29T09:29:11;17.00;99.90
13049;DHT22;6591;51.446;5.404;2023-04-29T09:31:44;17.80;99.90
13049;DHT22;6591;51.446;5.404;2023-04-29T09:34:12;18.10;99.90
13049;DHT22;6591;51.446;5.404;2023-04-29T09:36:48;17.30;99.90
13049;DHT22;6591;51.446;5.404;2023-04-29T09:39:18;17.10;99.90
13049;DHT22;6591;51.446;5.404;2023-04-29T09:44:21;17.40;99.90
13049;DHT22;6591;51.446;5.404;2023-04-29T09:49:40;17.50;99.90
13049;DHT22;6591;51.446;5.404;2023-04-29T09:52:13;17.60;99.90
13049;DHT22;6591;51.446;5.404;2023-04-29T09:54:43;17.60;99.90
13049;DHT22;6591;51.446;5.404;2023-04-29T09:57:11;17.80;99.90
13049;DHT22;6591;51.446;5.404;2023-04-29T09:59:41;17.90;99.90
13049;DHT22;6591;51.446;5.404;2023-04-29T10:02:16;19.80;99.90
13049;DHT22;6591;51.446;5.404;2023-04-29T10:04:47;18.20;99.90
13049;DHT22;6591;51.446;5.404;2023-04-29T10:07:24;18.50;99.90
13049;DHT22;6591;51.446;5.404;2023-04-29T10:09:53;18.70;99.90
13049;DHT22;6591;51.446;5.404;2023-04-29T10:12:21;18.90;99.90
13049;DHT22;6591;51.446;5.404;2023-04-29T10:15:03;19.10;99.90
13049;DHT22;6591;51.446;5.404;2023-04-29T10:17:42;19.10;97.00
13049;DHT22;6591;51.446;5.404;2023-04-29T10:20:14;19.30;97.60
13049;DHT22;6591;51.446;5.404;2023-04-29T10:22:50;18.90;97.30
13049;DHT22;6591;51.446;5.404;2023-04-29T10:25:19;18.80;97.60
13049;DHT22;6591;51.446;5.404;2023-04-29T10:27:49;19.70;98.70
13049;DHT22;6591;51.446;5.404;2023-04-29T10:30:20;18.70;98.70
13049;DHT22;6591;51.446;5.404;2023-04-29T10:32:49;20.20;99.90
13049;DHT22;6591;51.446;5.404;2023-04-29T10:35:20;18.70;99.10
13049;DHT22;6591;51.446;5.404;2023-04-29T10:37:52;18.70;98.00
13049;DHT22;6591;51.446;5.404;2023-04-29T10:40:23;18.70;97.40
13049;DHT22;6591;51.446;5.404;2023-04-29T10:42:57;18.70;97.60
13049;DHT22;6591;51.446;5.404;2023-04-29T10:45:29;18.70;98.20
13049;DHT22;6591;51.446;5.404;2023-04-29T10:50:29;18.70;96.70
13049;DHT22;6591;51.446;5.404;2023-04-29T10:53:00;19.80;97.90
13049;DHT22;6591;51.446;5.404;2023-04-29T10:55:29;18.70;98.10
13049;DHT22;6591;51.446;5.404;2023-04-29T10:57:56;19.10;97.80
13049;DHT22;6591;51.446;5.404;2023-04-29T11:00:28;18.90;97.50
13049;DHT22;6591;51.446;5.404;2023-04-29T11:02:57;18.90;97.70
13049;DHT22;6591;51.446;5.404;2023-04-29T11:05:31;19.00;97.60
13049;DHT22;6591;51.446;5.404;2023-04-29T11:08:11;19.00;96.70
13049;DHT22;6591;51.446;5.404;2023-04-29T11:10:42;18.90;95.30
13049;DHT22;6591;51.446;5.404;2023-04-29T11:13:28;18.90;96.90
13049;DHT22;6591;51.446;5.404;2023-04-29T11:16:07;19.00;96.30
13049;DHT22;6591;51.446;5.404;2023-04-29T11:21:36;18.90;96.90
13049;DHT22;6591;51.446;5.404;2023-04-29T11:24:05;19.20;97.00
13049;DHT22;6591;51.446;5.404;2023-04-29T11:26:36;19.00;96.10
13049;DHT22;6591;51.446;5.404;2023-04-29T11:29:07;19.10;96.10
13049;DHT22;6591;51.446;5.404;2023-04-29T11:31:37;19.10;95.20
13049;DHT22;6591;51.446;5.404;2023-04-29T11:34:07;19.00;95.60
13049;DHT22;6591;51.446;5.404;2023-04-29T11:36:34;19.10;95.50
13049;DHT22;6591;51.446;5.404;2023-04-29T11:39:03;19.00;95.80
13049;DHT22;6591;51.446;5.404;2023-04-29T11:41:30;19.00;94.80
13049;DHT22;6591;51.446;5.404;2023-04-29T11:43:58;18.90;95.40
13049;DHT22;6591;51.446;5.404;2023-04-29T11:46:30;19.00;95.90
13049;DHT22;6591;51.446;5.404;2023-04-29T11:48:58;18.90;95.20
13049;DHT22;6591;51.446;5.404;2023-04-29T11:51:26;18.80;96.00
13049;DHT22;6591;51.446;5.404;2023-04-29T11:53:55;18.80;95.50
13049;DHT22;6591;51.446;5.404;2023-04-29T11:56:23;18.80;96.20
13049;DHT22;6591;51.446;5.404;2023-04-29T11:58:55;18.80;96.70
13049;DHT22;6591;51.446;5.404;2023-04-29T12:01:24;18.80;95.80
13049;DHT22;6591;51.446;5.404;2023-04-29T12:03:56;19.00;96.30
13049;DHT22;6591;51.446;5.404;2023-04-29T12:06:29;19.00;95.30
13049;DHT22;6591;51.446;5.404;2023-04-29T12:08:58;19.00;94.50
13049;DHT22;6591;51.446;5.404;2023-04-29T12:11:26;19.00;95.10
13049;DHT22;6591;51.446;5.404;2023-04-29T12:13:55;19.20;95.30
13049;DHT22;6591;51.446;5.404;2023-04-29T12:16:23;19.10;95.50
13049;DHT22;6591;51.446;5.404;2023-04-29T12:18:51;19.10;96.10
13049;DHT22;6591;51.446;5.404;2023-04-29T12:21:20;19.20;96.30
13049;DHT22;6591;51.446;5.404;2023-04-29T12:23:48;19.40;96.00
13049;DHT22;6591;51.446;5.404;2023-04-29T12:26:17;19.60;96.80
13049;DHT22;6591;51.446;5.404;2023-04-29T12:28:48;20.70;97.00
13049;DHT22;6591;51.446;5.404;2023-04-29T12:31:20;22.50;97.40
13049;DHT22;6591;51.446;5.404;2023-04-29T12:33:47;20.40;96.00
13049;DHT22;6591;51.446;5.404;2023-04-29T12:36:18;20.60;95.50
13049;DHT22;6591;51.446;5.404;2023-04-29T12:38:46;20.80;95.20
13049;DHT22;6591;51.446;5.404;2023-04-29T12:41:14;22.30;94.30
13049;DHT22;6591;51.446;5.404;2023-04-29T12:43:43;21.00;94.80
13049;DHT22;6591;51.446;5.404;2023-04-29T12:46:10;21.10;93.70
13049;DHT22;6591;51.446;5.404;2023-04-29T12:48:39;21.20;93.00
13049;DHT22;6591;51.446;5.404;2023-04-29T12:51:09;21.30;93.90
13049;DHT22;6591;51.446;5.404;2023-04-29T12:53:37;21.40;93.20
13049;DHT22;6591;51.446;5.404;2023-04-29T12:56:05;21.40;93.00
13049;DHT22;6591;51.446;5.404;2023-04-29T12:58:33;21.50;93.40
13049;DHT22;6591;51.446;5.404;2023-04-29T13:01:00;21.60;92.60
13049;DHT22;6591;51.446;5.404;2023-04-29T13:03:27;21.60;92.00
13049;DHT22;6591;51.446;5.404;2023-04-29T13:05:55;22.30;93.30
13049;DHT22;6591;51.446;5.404;2023-04-29T13:08:22;21.90;93.30
13049;DHT22;6591;51.446;5.404;2023-04-29T13:10:49;22.00;91.70
13049;DHT22;6591;51.446;5.404;2023-04-29T13:13:17;22.20;91.60
13049;DHT22;6591;51.446;5.404;2023-04-29T13:15:44;22.30;91.70
13049;DHT22;6591;51.446;5.404;2023-04-29T13:18:11;22.40;91.20
13049;DHT22;6591;51.446;5.404;2023-04-29T13:20:38;22.60;91.20
13049;DHT22;6591;51.446;5.404;2023-04-29T13:23:08;22.50;91.20
13049;DHT22;6591;51.446;5.404;2023-04-29T13:25:36;22.50;90.70
13049;DHT22;6591;51.446;5.404;2023-04-29T13:28:03;22.60;91.10
13049;DHT22;6591;51.446;5.404;2023-04-29T13:30:31;22.60;90.20
13049;DHT22;6591;51.446;5.404;2023-04-29T13:32:59;22.60;90.70
13049;DHT22;6591;51.446;5.404;2023-04-29T13:35:37;22.60;91.20
13049;DHT22;6591;51.446;5.404;2023-04-29T13:38:06;22.70;91.30
13049;DHT22;6591;51.446;5.404;2023-04-29T13:40:33;22.90;91.10
13049;DHT22;6591;51.446;5.404;2023-04-29T13:43:07;23.00;90.70
13049;DHT22;6591;51.446;5.404;2023-04-29T13:45:36;23.20;91.00
13049;DHT22;6591;51.446;5.404;2023-04-29T13:48:09;23.20;91.00
13049;DHT22;6591;51.446;5.404;2023-04-29T13:50:51;23.30;90.30
13049;DHT22;6591;51.446;5.404;2023-04-29T13:53:21;23.40;87.90
13049;DHT22;6591;51.446;5.404;2023-04-29T13:55:51;23.30;86.10
13049;DHT22;6591;51.446;5.404;2023-04-29T13:58:21;23.20;86.20
13049;DHT22;6591;51.446;5.404;2023-04-29T14:00:51;23.10;84.40
13049;DHT22;6591;51.446;5.404;2023-04-29T14:03:27;22.90;84.50
13049;DHT22;6591;51.446;5.404;2023-04-29T14:05:59;22.60;83.30
13049;DHT22;6591;51.446;5.404;2023-04-29T14:08:26;22.40;83.20
13049;DHT22;6591;51.446;5.404;2023-04-29T14:10:53;22.20;83.30
13049;DHT22;6591;51.446;5.404;2023-04-29T14:13:21;22.00;84.50
13049;DHT22;6591;51.446;5.404;2023-04-29T14:15:48;21.80;86.40
13049;DHT22;6591;51.446;5.404;2023-04-29T14:18:15;21.70;86.20
13049;DHT22;6591;51.446;5.404;2023-04-29T14:20:42;22.40;85.90
13049;DHT22;6591;51.446;5.404;2023-04-29T14:23:09;21.60;86.60
13049;DHT22;6591;51.446;5.404;2023-04-29T14:25:36;21.50;86.50
13049;DHT22;6591;51.446;5.404;2023-04-29T14:28:03;21.80;87.40
13049;DHT22;6591;51.446;5.404;2023-04-29T14:30:30;21.40;87.30
13049;DHT22;6591;51.446;5.404;2023-04-29T14:32:57;21.40;87.10
13049;DHT22;6591;51.446;5.404;2023-04-29T14:35:24;21.40;86.20
13049;DHT22;6591;51.446;5.404;2023-04-29T14:37:51;22.10;87.10
13049;DHT22;6591;51.446;5.404;2023-04-29T14:40:18;21.50;86.90
13049;DHT22;6591;51.446;5.404;2023-04-29T14:42:45;21.50;85.80
13049;DHT22;6591;51.446;5.404;2023-04-29T14:45:12;21.50;86.60
13049;DHT22;6591;51.446;5.404;2023-04-29T14:47:39;21.60;87.40
13049;DHT22;6591;51.446;5.404;2023-04-29T14:50:07;21.70;87.90
13049;DHT22;6591;51.446;5.404;2023-04-29T14:52:35;21.80;87.60
13049;DHT22;6591;51.446;5.404;2023-04-29T14:55:03;21.90;85.10
13049;DHT22;6591;51.446;5.404;2023-04-29T14:57:30;21.90;85.40
13049;DHT22;6591;51.446;5.404;2023-04-29T14:59:57;21.80;85.00
13049;DHT22;6591;51.446;5.404;2023-04-29T15:02:24;21.80;85.50
13049;DHT22;6591;51.446;5.404;2023-04-29T15:04:51;21.70;85.80
13049;DHT22;6591;51.446;5.404;2023-04-29T15:07:18;21.60;85.50
13049;DHT22;6591;51.446;5.404;2023-04-29T15:09:45;21.50;84.40
13049;DHT22;6591;51.446;5.404;2023-04-29T15:12:13;21.40;84.40
13049;DHT22;6591;51.446;5.404;2023-04-29T15:14:42;21.30;85.40
13049;DHT22;6591;51.446;5.404;2023-04-29T15:17:09;21.30;86.00
13049;DHT22;6591;51.446;5.404;2023-04-29T15:19:36;21.20;85.80
13049;DHT22;6591;51.446;5.404;2023-04-29T15:22:04;21.20;86.00
13049;DHT22;6591;51.446;5.404;2023-04-29T15:24:30;21.20;84.70
13049;DHT22;6591;51.446;5.404;2023-04-29T15:26:57;21.20;85.00
13049;DHT22;6591;51.446;5.404;2023-04-29T15:29:24;21.20;85.00
13049;DHT22;6591;51.446;5.404;2023-04-29T15:31:51;21.20;85.00
13049;DHT22;6591;51.446;5.404;2023-04-29T15:34:19;21.60;86.00
13049;DHT22;6591;51.446;5.404;2023-04-29T15:36:47;21.40;86.10
13049;DHT22;6591;51.446;5.404;2023-04-29T15:39:14;21.40;84.60
13049;DHT22;6591;51.446;5.404;2023-04-29T15:41:42;21.50;83.30
13049;DHT22;6591;51.446;5.404;2023-04-29T15:44:09;21.60;83.40
13049;DHT22;6591;51.446;5.404;2023-04-29T15:46:36;21.70;83.60
13049;DHT22;6591;51.446;5.404;2023-04-29T15:49:03;21.60;84.60
13049;DHT22;6591;51.446;5.404;2023-04-29T15:51:32;21.60;84.90
13049;DHT22;6591;51.446;5.404;2023-04-29T15:53:59;21.70;83.60
13049;DHT22;6591;51.446;5.404;2023-04-29T15:56:26;21.70;83.70
13049;DHT22;6591;51.446;5.404;2023-04-29T15:58:53;21.70;83.90
13049;DHT22;6591;51.446;5.404;2023-04-29T16:01:20;21.70;83.30
13049;DHT22;6591;51.446;5.404;2023-04-29T16:03:47;21.70;82.60
13049;DHT22;6591;51.446;5.404;2023-04-29T16:06:17;21.60;81.30
13049;DHT22;6591;51.446;5.404;2023-04-29T16:08:46;21.50;81.40
13049;DHT22;6591;51.446;5.404;2023-04-29T16:11:13;21.40;82.80
13049;DHT22;6591;51.446;5.404;2023-04-29T16:13:41;21.20;82.20
13049;DHT22;6591;51.446;5.404;2023-04-29T16:16:08;21.00;82.00
13049;DHT22;6591;51.446;5.404;2023-04-29T16:18:35;20.90;83.20
13049;DHT22;6591;51.446;5.404;2023-04-29T16:21:04;20.80;83.10
13049;DHT22;6591;51.446;5.404;2023-04-29T16:23:31;20.80;83.40